createdAt,value
2022-12-03T00:02:17.232Z,100044.84
2022-12-03T00:04:44.966Z,100046.47
2022-12-03T00:07:11.954Z,100047.31
2022-12-03T00:09:38.999Z,100054.28
2022-12-03T00:12:06.412Z,100054.13
2022-12-03T00:14:33.430Z,100054.28
2022-12-03T00:17:00.509Z,100051.66
2022-12-03T00:19:27.807Z,100057.72
2022-12-03T00:21:54.822Z,100051.66
2022-12-03T00:24:21.836Z,100054.31
2022-12-03T00:26:49.102Z,100052.62
2022-12-03T00:29:16.119Z,100061.31
2022-12-03T00:31:45.476Z,100050.00
2022-12-03T00:34:12.911Z,100056.94
2022-12-03T00:36:40.963Z,100056.94
2022-12-03T00:39:07.950Z,100055.97
2022-12-03T00:41:35.361Z,100061.13
2022-12-03T00:44:02.452Z,100062.91
2022-12-03T00:46:29.518Z,100063.81
2022-12-03T00:48:56.982Z,100067.22
2022-12-03T00:51:23.993Z,100068.09
2022-12-03T00:53:50.985Z,100067.31
2022-12-03T00:56:18.557Z,100059.50
2022-12-03T00:58:45.548Z,100061.13
2022-12-03T01:01:12.552Z,100062.06
2022-12-03T01:03:39.804Z,100058.47
2022-12-03T01:06:08.508Z,100061.13
2022-12-03T01:08:35.544Z,100058.56
2022-12-03T01:11:02.874Z,100065.56
2022-12-03T01:13:29.882Z,100062.00
2022-12-03T01:15:56.972Z,100056.00
2022-12-03T01:18:24.312Z,100057.81
2022-12-03T01:20:51.347Z,100049.91
2022-12-03T01:23:18.363Z,100054.28
2022-12-03T01:25:45.621Z,100058.63
2022-12-03T01:28:12.616Z,100063.81
2022-12-03T01:30:59.619Z,100058.63
2022-12-03T01:33:26.955Z,100065.53
2022-12-03T01:35:53.915Z,100059.41
2022-12-03T01:38:20.950Z,100061.13
2022-12-03T01:40:49.937Z,100064.59
2022-12-03T01:43:17.053Z,100061.84
2022-12-03T01:45:44.122Z,100064.56
2022-12-03T01:48:16.671Z,100062.84
2022-12-03T01:50:44.298Z,100068.03
2022-12-03T01:53:15.521Z,100062.09
2022-12-03T01:55:48.820Z,100064.59
2022-12-03T01:58:19.745Z,100061.19
2022-12-03T02:00:46.727Z,100061.13
2022-12-03T02:03:25.946Z,100062.06
2022-12-03T02:05:54.182Z,100056.66
2022-12-03T02:08:39.186Z,100058.56
2022-12-03T02:11:42.149Z,100059.38
2022-12-03T02:14:13.932Z,100055.09
2022-12-03T02:16:42.798Z,100055.06
2022-12-03T02:19:26.772Z,100055.88
2022-12-03T02:22:18.881Z,100061.13
2022-12-03T02:24:58.778Z,100055.91
2022-12-03T02:27:28.418Z,100055.84
2022-12-03T02:29:55.949Z,100048.94
2022-12-03T02:32:23.577Z,100057.59
2022-12-03T02:34:52.356Z,100055.03
2022-12-03T02:37:31.315Z,100055.09
2022-12-03T02:40:06.447Z,100052.53
2022-12-03T02:42:36.265Z,100049.91
2022-12-03T02:45:12.373Z,100054.28
2022-12-03T02:47:44.432Z,100056.94
2022-12-03T02:50:15.212Z,100057.66
2022-12-03T02:52:45.018Z,100055.94
2022-12-03T02:55:14.058Z,100055.13
2022-12-03T02:57:41.480Z,100055.16
2022-12-03T03:00:10.353Z,100056.75
2022-12-03T03:02:40.373Z,100056.69
2022-12-03T03:05:09.992Z,100057.63
2022-12-03T03:07:38.991Z,100057.69
2022-12-03T03:10:10.919Z,100057.66
2022-12-03T03:12:39.564Z,100066.34
2022-12-03T03:15:09.248Z,100068.06
2022-12-03T03:17:36.322Z,100064.59
2022-12-03T03:20:05.586Z,100067.28
2022-12-03T03:22:37.911Z,100062.75
2022-12-03T03:25:08.726Z,100064.47
2022-12-03T03:27:36.028Z,100063.56
2022-12-03T03:30:04.602Z,100060.09
2022-12-03T03:32:32.243Z,100060.97
2022-12-03T03:35:00.952Z,100060.03
2022-12-03T03:37:28.496Z,100059.16
2022-12-03T03:39:56.213Z,100055.75
2022-12-03T03:42:24.043Z,100057.50
2022-12-03T03:44:51.622Z,100055.72
2022-12-03T03:47:20.144Z,100062.69
2022-12-03T03:49:49.554Z,100059.19
2022-12-03T03:52:18.495Z,100048.75
2022-12-03T03:54:46.997Z,100058.41
2022-12-03T03:57:14.401Z,100055.72
2022-12-03T03:59:41.712Z,100060.84
2022-12-03T04:02:18.900Z,100054.88
2022-12-03T04:04:46.294Z,100056.53
2022-12-03T04:07:13.976Z,100062.69
2022-12-03T04:09:40.998Z,100063.50
2022-12-03T04:12:27.452Z,100066.19
2022-12-03T04:14:54.583Z,100060.16
2022-12-03T04:17:22.315Z,100061.94
2022-12-03T04:19:49.331Z,100057.50
2022-12-03T04:22:35.038Z,100052.34
2022-12-03T04:25:21.071Z,100059.22
2022-12-03T04:28:06.812Z,100053.13
2022-12-03T04:30:34.205Z,100057.53
2022-12-03T04:33:19.617Z,100058.38
2022-12-03T04:35:47.151Z,100060.09
2022-12-03T04:38:16.379Z,100060.03
2022-12-03T04:41:01.718Z,100058.31
2022-12-03T04:43:31.384Z,100060.06
2022-12-03T04:45:58.879Z,100064.28
2022-12-03T04:48:26.004Z,100059.88
2022-12-03T04:50:53.645Z,100063.47
2022-12-03T04:53:20.652Z,100060.00
2022-12-03T04:55:47.655Z,100047.06
2022-12-03T04:58:14.968Z,100055.72
2022-12-03T05:00:41.967Z,100059.19
2022-12-03T05:03:08.932Z,100063.72
2022-12-03T05:05:36.268Z,100064.53
2022-12-03T05:08:03.339Z,100066.25
2022-12-03T05:10:30.422Z,100073.25
2022-12-03T05:12:57.766Z,100064.56
2022-12-03T05:15:24.775Z,100078.50
2022-12-03T05:17:51.780Z,100075.03
2022-12-03T05:20:37.321Z,100074.97
2022-12-03T05:23:04.483Z,100078.38
2022-12-03T05:25:31.770Z,100076.78
2022-12-03T05:27:58.790Z,100077.66
2022-12-03T05:30:25.878Z,100078.50
2022-12-03T05:32:53.573Z,100087.31
2022-12-03T05:35:20.683Z,100081.22
2022-12-03T05:37:47.667Z,100075.94
2022-12-03T05:40:15.621Z,100080.25
2022-12-03T05:42:54.624Z,100080.22
2022-12-03T05:45:26.230Z,100093.34
2022-12-03T05:47:54.322Z,100103.72
2022-12-03T05:50:24.395Z,100102.03
2022-12-03T05:52:51.787Z,100105.59
2022-12-03T05:55:19.760Z,100104.63
2022-12-03T05:57:47.482Z,100108.06
2022-12-03T06:00:17.790Z,100102.84
2022-12-03T06:02:45.562Z,100101.97
2022-12-03T06:05:14.017Z,100091.66
2022-12-03T06:07:41.159Z,100095.91
2022-12-03T06:10:11.291Z,100102.06
2022-12-03T06:12:38.304Z,100109.94
2022-12-03T06:15:06.585Z,100101.06
2022-12-03T06:17:33.884Z,100097.56
2022-12-03T06:20:01.029Z,100097.66
2022-12-03T06:22:28.057Z,100088.09
2022-12-03T06:24:55.680Z,100095.09
2022-12-03T06:27:23.142Z,100096.84
2022-12-03T06:29:50.188Z,100094.28
2022-12-03T06:32:17.543Z,100092.50
2022-12-03T06:34:44.547Z,100095.09
2022-12-03T06:37:11.581Z,100085.56
2022-12-03T06:39:38.940Z,100091.69
2022-12-03T06:42:06.186Z,100099.47
2022-12-03T06:44:33.215Z,100110.78
2022-12-03T06:47:00.582Z,100096.81
2022-12-03T06:49:27.651Z,100092.50
2022-12-03T06:51:54.718Z,100099.34
2022-12-03T06:54:22.008Z,100105.44
2022-12-03T06:56:49.064Z,100109.75
2022-12-03T06:59:16.087Z,100114.94
2022-12-03T07:01:44.651Z,100111.47
2022-12-03T07:04:11.868Z,100112.28
2022-12-03T07:06:38.976Z,100106.16
2022-12-03T07:09:06.317Z,100106.09
2022-12-03T07:11:33.498Z,100110.41
2022-12-03T07:14:05.606Z,100107.81
2022-12-03T07:16:36.765Z,100113.03
2022-12-03T07:19:05.695Z,100112.22
2022-12-03T07:21:32.710Z,100101.81
2022-12-03T07:24:00.013Z,100111.25
2022-12-03T07:26:27.127Z,100109.41
2022-12-03T07:28:55.785Z,100108.44
2022-12-03T07:31:23.479Z,100113.59
2022-12-03T07:33:50.522Z,100119.53
2022-12-03T07:36:17.734Z,100117.72
2022-12-03T07:38:45.058Z,100120.19
2022-12-03T07:41:12.329Z,100114.09
2022-12-03T07:43:39.330Z,100103.62
2022-12-03T07:46:06.665Z,100100.06
2022-12-03T07:48:33.662Z,100102.69
2022-12-03T07:51:00.776Z,100103.47
2022-12-03T07:53:28.176Z,100099.88
2022-12-03T07:55:55.277Z,100099.88
2022-12-03T07:58:22.557Z,100097.19
2022-12-03T08:00:49.928Z,100097.13
2022-12-03T08:03:17.869Z,100099.56
2022-12-03T08:05:46.025Z,100102.19
2022-12-03T08:08:13.144Z,100111.56
2022-12-03T08:10:43.122Z,100122.13
2022-12-03T08:13:15.266Z,100121.22
2022-12-03T08:15:43.213Z,100123.00
2022-12-03T08:18:15.177Z,100122.81
2022-12-03T08:20:44.502Z,100130.56
2022-12-03T08:23:23.005Z,100125.28
2022-12-03T08:25:51.941Z,100109.44
2022-12-03T08:28:22.394Z,100111.44
2022-12-03T08:31:02.473Z,100102.72
2022-12-03T08:33:36.180Z,100098.31
2022-12-03T08:36:14.179Z,100107.91
2022-12-03T08:38:50.156Z,100116.69
2022-12-03T08:41:54.586Z,100115.06
2022-12-03T08:44:38.518Z,100120.34
2022-12-03T08:47:23.347Z,100132.25
2022-12-03T08:50:06.319Z,100139.28
2022-12-03T08:52:34.760Z,100140.62
2022-12-03T08:55:38.378Z,100143.19
2022-12-03T08:58:24.078Z,100149.88
2022-12-03T09:00:58.299Z,100147.06
2022-12-03T09:03:29.902Z,100146.06
2022-12-03T09:05:57.306Z,100133.94
2022-12-03T09:08:24.315Z,100138.97
2022-12-03T09:10:51.363Z,100133.72
2022-12-03T09:13:18.666Z,100119.88
2022-12-03T09:15:45.672Z,100120.56
2022-12-03T09:18:14.474Z,100118.03
2022-12-03T09:20:41.865Z,100120.38
2022-12-03T09:23:08.881Z,100119.91
2022-12-03T09:25:35.878Z,100117.00
2022-12-03T09:28:03.354Z,100116.00
2022-12-03T09:30:30.930Z,100115.94
2022-12-03T09:32:58.009Z,100121.03
2022-12-03T09:35:26.117Z,100121.09
2022-12-03T09:37:53.624Z,100110.59
2022-12-03T09:40:21.007Z,100113.91
2022-12-03T09:42:48.508Z,100109.31
2022-12-03T09:45:16.103Z,100116.31
2022-12-03T09:47:46.664Z,100117.72
2022-12-03T09:50:16.019Z,100113.19
2022-12-03T09:52:45.144Z,100106.03
2022-12-03T09:55:21.092Z,100103.28
2022-12-03T09:57:48.505Z,100115.44
2022-12-03T10:00:26.808Z,100114.63
2022-12-03T10:02:58.141Z,100103.69
2022-12-03T10:05:25.574Z,100086.91
2022-12-03T10:07:53.313Z,100091.31
2022-12-03T10:10:22.864Z,100101.13
2022-12-03T10:12:52.092Z,100097.44
2022-12-03T10:15:21.907Z,100096.44
2022-12-03T10:17:52.827Z,100087.28
2022-12-03T10:20:22.159Z,100086.88
2022-12-03T10:22:49.648Z,100084.97
2022-12-03T10:25:22.311Z,100078.94
2022-12-03T10:28:01.312Z,100069.28
2022-12-03T10:30:29.122Z,100063.78
2022-12-03T10:32:58.520Z,100061.81
2022-12-03T10:35:38.118Z,100065.41
2022-12-03T10:38:07.803Z,100048.66
2022-12-03T10:40:39.327Z,100058.25
2022-12-03T10:43:20.538Z,100056.41
2022-12-03T10:45:50.057Z,100045.00
2022-12-03T10:48:25.393Z,100051.13
2022-12-03T10:51:01.410Z,100047.63
2022-12-03T10:53:31.841Z,100039.25
2022-12-03T10:56:02.009Z,100031.53
2022-12-03T10:58:34.367Z,100037.47
2022-12-03T11:01:03.615Z,100034.56
2022-12-03T11:03:35.473Z,100036.94
2022-12-03T11:06:03.252Z,100032.56
2022-12-03T11:08:34.724Z,100033.41
2022-12-03T11:11:03.806Z,100030.53
2022-12-03T11:13:33.787Z,100031.16
2022-12-03T11:16:03.235Z,100026.47
2022-12-03T11:18:36.515Z,100016.66
2022-12-03T11:21:10.091Z,100021.16
2022-12-03T11:23:46.406Z,100006.28
2022-12-03T11:26:34.862Z,100003.03
2022-12-03T11:29:02.279Z,100006.44
2022-12-03T11:31:43.216Z,100008.81
2022-12-03T11:34:19.759Z,100003.03
2022-12-03T11:37:11.684Z,100008.03
2022-12-03T11:39:45.787Z,100005.38
2022-12-03T11:42:25.843Z,99995.84
2022-12-03T11:45:11.177Z,100002.00
2022-12-03T11:47:47.688Z,100002.28
2022-12-03T11:50:22.505Z,99994.47
2022-12-03T11:53:00.471Z,99994.41
2022-12-03T11:55:34.716Z,99989.41
2022-12-03T11:58:07.204Z,99981.50
2022-12-03T12:00:34.490Z,99982.09
2022-12-03T12:03:01.786Z,99977.72
2022-12-03T12:05:35.582Z,99980.47
2022-12-03T12:08:03.462Z,99974.38
2022-12-03T12:10:48.559Z,99970.75
2022-12-03T12:13:26.263Z,99971.94
2022-12-03T12:15:53.789Z,99968.09
2022-12-03T12:18:44.545Z,99969.87
2022-12-03T12:21:42.778Z,99968.28
2022-12-03T12:24:43.088Z,99969.84
2022-12-03T12:27:34.196Z,99969.78
2022-12-03T12:30:07.528Z,99962.09
2022-12-03T12:32:48.566Z,99969.06
2022-12-03T12:35:22.760Z,99968.78
2022-12-03T12:37:59.124Z,99963.37
2022-12-03T12:40:32.333Z,99959.81
2022-12-03T12:43:13.544Z,99957.03
2022-12-03T12:45:44.179Z,99958.75
2022-12-03T12:48:24.364Z,99963.13
2022-12-03T12:51:09.791Z,99946.28
2022-12-03T12:53:38.867Z,99937.50
2022-12-03T12:56:18.372Z,99948.91
2022-12-03T12:58:45.919Z,99947.25
2022-12-03T13:01:29.093Z,99944.44
2022-12-03T13:03:56.903Z,99943.59
2022-12-03T13:06:28.627Z,99956.53
2022-12-03T13:08:56.977Z,99958.25
2022-12-03T13:11:41.295Z,99957.63
2022-12-03T13:14:26.741Z,99957.72
2022-12-03T13:16:57.012Z,99954.09
2022-12-03T13:19:26.468Z,99948.00
2022-12-03T13:22:00.633Z,99955.00
2022-12-03T13:24:29.153Z,99956.78
2022-12-03T13:26:57.010Z,99968.22
2022-12-03T13:29:27.003Z,99958.41
2022-12-03T13:31:59.757Z,99958.41
2022-12-03T13:34:32.916Z,99948.25
2022-12-03T13:37:01.354Z,99960.28
2022-12-03T13:39:35.404Z,99958.75
2022-12-03T13:42:26.920Z,99953.50
2022-12-03T13:44:54.538Z,99953.56
2022-12-03T13:47:23.351Z,99959.84
2022-12-03T13:50:03.641Z,99964.31
2022-12-03T13:52:33.016Z,99956.75
2022-12-03T13:55:03.531Z,99962.25
2022-12-03T13:57:30.808Z,99965.00
2022-12-03T13:59:57.802Z,99962.34
2022-12-03T14:02:24.896Z,99962.41
2022-12-03T14:04:58.460Z,99965.16
2022-12-03T14:07:27.228Z,99959.19
2022-12-03T14:09:54.763Z,99965.22
2022-12-03T14:12:27.634Z,99970.41
2022-12-03T14:14:55.010Z,99972.09
2022-12-03T14:17:22.103Z,99978.25
2022-12-03T14:19:49.151Z,99974.09
2022-12-03T14:22:18.729Z,99969.78
2022-12-03T14:24:45.725Z,99970.00
2022-12-03T14:27:12.712Z,99965.44
2022-12-03T14:29:40.016Z,99962.00
2022-12-03T14:32:07.904Z,99966.44
2022-12-03T14:34:34.923Z,99960.53
2022-12-03T14:37:02.292Z,99966.75
2022-12-03T14:39:29.259Z,99961.72
2022-12-03T14:42:14.487Z,99969.03
2022-12-03T14:44:49.499Z,99957.78
2022-12-03T14:47:21.699Z,99969.16
2022-12-03T14:49:49.523Z,99969.25
2022-12-03T14:52:17.513Z,99968.34
2022-12-03T14:54:45.354Z,99972.78
2022-12-03T14:57:14.031Z,99972.06
2022-12-03T14:59:42.698Z,99966.56
2022-12-03T15:02:11.095Z,99974.69
2022-12-03T15:04:39.923Z,99979.88
2022-12-03T15:07:07.097Z,99976.53
2022-12-03T15:09:34.397Z,99973.19
2022-12-03T15:12:04.173Z,99970.59
2022-12-03T15:14:31.168Z,99974.25
2022-12-03T15:16:58.286Z,99979.38
2022-12-03T15:19:25.680Z,99982.12
2022-12-03T15:21:52.670Z,99992.09
2022-12-03T15:24:19.655Z,99994.75
2022-12-03T15:26:46.992Z,99990.62
2022-12-03T15:29:14.017Z,99990.69
2022-12-03T15:31:41.073Z,99986.28
2022-12-03T15:34:08.473Z,99987.28
2022-12-03T15:36:35.540Z,99985.56
2022-12-03T15:39:02.819Z,99994.22
2022-12-03T15:41:30.271Z,99986.78
2022-12-03T15:44:00.138Z,99990.22
2022-12-03T15:46:28.003Z,99994.81
2022-12-03T15:48:55.766Z,99994.81
2022-12-03T15:51:23.369Z,99990.44
2022-12-03T15:53:50.681Z,99990.62
2022-12-03T15:56:18.084Z,99982.72
2022-12-03T15:58:45.058Z,99992.44
2022-12-03T16:01:13.694Z,99992.25
2022-12-03T16:03:41.769Z,99991.59
2022-12-03T16:06:10.730Z,99995.97
2022-12-03T16:08:37.713Z,100002.16
2022-12-03T16:11:05.195Z,99993.47
2022-12-03T16:13:32.147Z,99993.47
2022-12-03T16:16:00.042Z,99990.09
2022-12-03T16:18:27.704Z,99997.16
2022-12-03T16:20:54.704Z,99995.50
2022-12-03T16:23:21.695Z,99993.81
2022-12-03T16:25:48.948Z,99995.63
2022-12-03T16:28:16.006Z,99993.19
2022-12-03T16:30:43.177Z,99996.69
2022-12-03T16:33:10.517Z,100000.16
2022-12-03T16:35:38.068Z,100003.69
2022-12-03T16:38:05.165Z,100006.94
2022-12-03T16:40:32.480Z,100009.50
2022-12-03T16:42:59.453Z,100002.87
2022-12-03T16:45:33.245Z,100004.56
2022-12-03T16:48:01.706Z,100006.97
2022-12-03T16:50:30.322Z,100006.03
2022-12-03T16:52:58.133Z,100002.66
2022-12-03T16:55:25.555Z,100000.72
2022-12-03T16:57:52.595Z,99996.31
2022-12-03T17:00:21.849Z,99995.63
2022-12-03T17:02:49.269Z,99997.38
2022-12-03T17:05:16.420Z,99995.69
2022-12-03T17:07:43.566Z,99995.56
2022-12-03T17:10:11.386Z,99997.38
2022-12-03T17:13:07.662Z,99992.94
2022-12-03T17:15:25.723Z,99986.88
2022-12-03T17:17:53.316Z,99987.84
2022-12-03T17:20:20.395Z,99987.84
2022-12-03T17:22:47.656Z,99988.03
2022-12-03T17:25:14.782Z,99985.25
2022-12-03T17:27:45.103Z,99986.28
2022-12-03T17:30:13.741Z,99982.66
2022-12-03T17:32:40.844Z,99983.50
2022-12-03T17:35:08.870Z,99987.06
2022-12-03T17:37:36.288Z,99984.47
2022-12-03T17:40:08.281Z,99980.41
2022-12-03T17:42:35.778Z,99986.34
2022-12-03T17:45:03.573Z,99986.44
2022-12-03T17:47:30.541Z,99988.19
2022-12-03T17:49:57.884Z,99992.69
2022-12-03T17:52:24.946Z,99990.00
2022-12-03T17:57:39.163Z,99990.97
2022-12-03T18:00:06.914Z,100001.50
2022-12-03T18:02:39.051Z,99991.06
2022-12-03T18:05:06.828Z,99998.16
2022-12-03T18:07:34.062Z,99998.16
2022-12-03T18:10:02.620Z,99997.34
2022-12-03T18:12:29.920Z,99999.81
2022-12-03T18:14:56.975Z,100000.66
2022-12-03T18:17:24.041Z,100007.66
2022-12-03T18:19:51.626Z,100009.34
2022-12-03T18:22:19.045Z,100004.00
2022-12-03T18:24:50.218Z,99997.03
2022-12-03T18:27:20.786Z,99991.91
2022-12-03T18:29:48.402Z,100000.69
2022-12-03T18:32:28.399Z,99995.50
2022-12-03T18:34:57.391Z,99997.16
2022-12-03T18:37:29.430Z,99998.19
2022-12-03T18:39:58.150Z,99993.87
2022-12-03T18:42:25.979Z,99993.06
2022-12-03T18:44:55.347Z,99998.34
2022-12-03T18:47:26.922Z,99992.13
2022-12-03T18:49:55.353Z,100000.81
2022-12-03T18:52:24.967Z,100000.16
2022-12-03T18:54:52.269Z,100001.91
2022-12-03T18:57:19.363Z,99990.41
2022-12-03T18:59:47.017Z,99983.44
2022-12-03T19:02:46.059Z,99986.03
2022-12-03T19:05:05.650Z,99985.22
2022-12-03T19:07:32.708Z,99985.22
2022-12-03T19:09:59.738Z,99993.03
2022-12-03T19:12:28.645Z,99994.03
2022-12-03T19:14:55.661Z,99986.31
2022-12-03T19:17:22.639Z,99993.13
2022-12-03T19:19:49.886Z,99991.28
2022-12-03T19:22:16.875Z,99987.75
2022-12-03T19:24:43.891Z,100002.72
2022-12-03T19:27:11.468Z,99997.41
2022-12-03T19:29:38.561Z,100008.75
2022-12-03T19:32:05.765Z,100009.63
2022-12-03T19:34:33.208Z,100014.75
2022-12-03T19:37:00.220Z,100018.25
2022-12-03T19:39:27.274Z,100017.34
2022-12-03T19:41:54.543Z,100024.44
2022-12-03T19:44:21.543Z,100033.94
2022-12-03T19:46:51.128Z,100022.59
2022-12-03T19:49:20.953Z,100023.63
2022-12-03T19:51:48.567Z,100029.56
2022-12-03T19:54:15.625Z,100018.97
2022-12-03T19:56:43.349Z,100021.53
2022-12-03T19:59:14.161Z,100026.00
2022-12-03T20:01:43.047Z,100021.47
2022-12-03T20:04:11.891Z,100025.78
2022-12-03T20:06:39.362Z,100020.53
2022-12-03T20:09:15.346Z,100031.13
2022-12-03T20:11:44.485Z,100028.38
2022-12-03T20:14:14.898Z,100022.25
2022-12-03T20:16:42.943Z,100024.78
2022-12-03T20:19:13.428Z,100018.50
2022-12-03T20:21:41.034Z,100030.56
2022-12-03T20:24:10.295Z,100024.44
2022-12-03T20:26:37.303Z,100018.41
2022-12-03T20:29:04.406Z,100020.97
2022-12-03T20:31:32.350Z,100011.19
2022-12-03T20:34:02.321Z,100017.28
2022-12-03T20:36:33.108Z,100021.88
2022-12-03T20:39:02.924Z,100015.84
2022-12-03T20:41:29.988Z,100020.06
2022-12-03T20:43:57.149Z,100015.53
2022-12-03T20:46:31.139Z,100017.28
2022-12-03T20:48:58.851Z,100012.97
2022-12-03T20:51:29.919Z,100014.72
2022-12-03T20:53:58.977Z,100005.22
2022-12-03T20:56:35.786Z,100011.38
2022-12-03T20:59:05.595Z,100008.75
2022-12-03T21:01:34.380Z,100007.94
2022-12-03T21:04:03.052Z,100006.87
2022-12-03T21:06:30.185Z,100000.16
2022-12-03T21:08:58.545Z,99999.84
2022-12-03T21:11:29.713Z,100005.22
2022-12-03T21:13:58.343Z,100009.69
2022-12-03T21:16:59.695Z,100009.56
2022-12-03T21:19:20.360Z,100004.44
2022-12-03T21:21:48.345Z,100001.91
2022-12-03T21:24:15.514Z,100001.12
2022-12-03T21:26:42.635Z,99996.75
2022-12-03T21:29:09.927Z,99995.72
2022-12-03T21:31:38.364Z,100000.94
2022-12-03T21:34:06.130Z,99999.09
2022-12-03T21:36:33.432Z,100004.31
2022-12-03T21:39:00.611Z,99999.19
2022-12-03T21:41:27.654Z,99995.63
2022-12-03T21:43:54.917Z,99993.87
2022-12-03T21:47:12.823Z,99992.94
2022-12-03T21:49:11.151Z,99993.91
2022-12-03T21:51:38.326Z,100002.59
2022-12-03T21:54:05.403Z,99997.22
2022-12-03T21:56:33.430Z,99997.22
2022-12-03T21:59:00.433Z,99989.44
2022-12-03T22:01:27.610Z,99998.97
2022-12-03T22:03:55.231Z,99989.25
2022-12-03T22:06:22.924Z,99990.12
2022-12-03T22:08:50.356Z,99993.75
2022-12-03T22:11:22.611Z,99987.66
2022-12-03T22:13:50.017Z,99986.97
2022-12-03T22:16:20.504Z,99989.66
2022-12-03T22:18:48.157Z,99987.72
2022-12-03T22:21:17.613Z,99992.75
2022-12-03T22:23:45.138Z,99975.31
2022-12-03T22:26:14.379Z,99988.50
2022-12-03T22:28:49.027Z,99985.00
2022-12-03T22:31:17.635Z,99980.72
2022-12-03T22:33:48.223Z,99978.19
2022-12-03T22:36:21.111Z,99979.28
2022-12-03T22:38:50.726Z,99986.16
2022-12-03T22:41:19.096Z,99987.88
2022-12-03T22:43:47.445Z,99980.19
2022-12-03T22:46:15.679Z,99981.97
2022-12-03T22:48:44.564Z,99976.66
2022-12-03T22:51:23.881Z,99977.59
2022-12-03T22:53:56.771Z,99975.94
2022-12-03T22:56:24.390Z,99974.97
2022-12-03T22:58:52.213Z,99969.72
2022-12-03T23:01:30.478Z,99972.31
2022-12-03T23:03:58.470Z,99970.66
2022-12-03T23:06:26.636Z,99968.13
2022-12-03T23:08:54.136Z,99969.97
2022-12-03T23:11:22.125Z,99966.59
2022-12-03T23:13:49.673Z,99961.38
2022-12-03T23:16:20.399Z,99963.19
2022-12-03T23:18:48.131Z,99973.62
2022-12-03T23:21:29.836Z,99968.56
2022-12-03T23:24:03.370Z,99972.19
2022-12-03T23:26:33.306Z,99974.78
2022-12-03T23:29:00.562Z,99964.50
2022-12-03T23:31:30.265Z,99956.44
2022-12-03T23:33:59.025Z,99958.19
2022-12-03T23:36:30.098Z,99962.53
2022-12-03T23:38:57.215Z,99959.12
2022-12-03T23:41:25.467Z,99942.56
2022-12-03T23:43:53.551Z,99943.53
2022-12-03T23:46:25.901Z,99947.69
2022-12-03T23:48:53.351Z,99962.37
2022-12-03T23:51:24.048Z,99953.84
2022-12-03T23:53:53.042Z,99950.38
2022-12-03T23:56:23.686Z,99941.63
2022-12-03T23:58:51.106Z,99939.87
